Time;durP1;ratioP1;P1;durP2;ratioP2;P2;SDS_P1;SDS_P2;PMS_P1;PMS_P2;Temp;Humidity;BMP_temperature;BMP_pressure;BME280_temperature;BME280_humidity;BME280_pressure;Samples;Min_cycle;Max_cycle;Signal;HPM_P1;HPM_P2
2023/05/12 00:05:48;;;;;;;1.77;0.20;;;;;;;;;;20993888;28;20112;-61
2023/05/12 00:15:49;;;;;;;0.90;0.30;;;;;;;;;;20993416;28;20502;-62
2023/05/12 00:25:51;;;;;;;1.58;0.20;;;;;;;;;;21003886;28;20063;-62
2023/05/12 00:35:52;;;;;;;0.20;0.10;;;;;;;;;;21007035;28;20501;-61
2023/05/12 00:45:53;;;;;;;0.32;0.13;;;;;;;;;;21004878;28;20047;-61
2023/05/12 00:55:54;;;;;;;0.73;0.10;;;;;;;;;;21004334;28;20045;-61
2023/05/12 01:06:07;;;;;;;3.53;0.47;;;;;;;;;;21006099;28;20106;-61
2023/05/12 01:16:09;;;;;;;0.45;0.10;;;;;;;;;;21004052;28;20051;-61
2023/05/12 01:26:11;;;;;;;0.70;0.10;;;;;;;;;;21002819;28;20460;-62
2023/05/12 01:36:12;;;;;;;1.38;0.20;;;;;;;;;;21001132;28;20040;-61
2023/05/12 01:46:13;;;;;;;1.88;0.15;;;;;;;;;;21001157;28;20177;-61
2023/05/12 01:56:14;;;;;;;2.70;0.47;;;;;;;;;;20999212;28;20040;-62
2023/05/12 02:06:15;;;;;;;3.45;0.30;;;;;;;;;;20999896;28;20044;-61
2023/05/12 02:16:17;;;;;;;1.70;0.22;;;;;;;;;;21000254;28;20138;-61
2023/05/12 02:26:18;;;;;;;1.65;0.32;;;;;;;;;;20998775;28;20078;-62
2023/05/12 02:36:19;;;;;;;0.30;0.20;;;;;;;;;;20998942;28;20040;-61
2023/05/12 02:46:20;;;;;;;0.90;0.20;;;;;;;;;;20996934;28;20101;-60
2023/05/12 02:56:21;;;;;;;0.30;0.10;;;;;;;;;;20998063;28;20059;-62
2023/05/12 03:06:22;;;;;;;2.58;0.20;;;;;;;;;;20997616;28;20052;-61
2023/05/12 03:16:24;;;;;;;1.65;0.20;;;;;;;;;;20996045;28;20128;-61
2023/05/12 03:26:25;;;;;;;1.70;0.50;;;;;;;;;;20995459;28;20063;-61
2023/05/12 03:36:26;;;;;;;2.53;0.45;;;;;;;;;;20995036;28;20084;-61
2023/05/12 03:46:27;;;;;;;1.67;0.38;;;;;;;;;;20994305;28;20135;-62
2023/05/12 03:56:29;;;;;;;1.55;0.40;;;;;;;;;;21000763;28;20090;-61
2023/05/12 04:06:30;;;;;;;0.77;0.20;;;;;;;;;;21010614;28;20051;-60
2023/05/12 04:16:31;;;;;;;1.42;0.10;;;;;;;;;;21009892;28;20482;-61
2023/05/12 04:26:32;;;;;;;2.42;0.20;;;;;;;;;;21008208;28;20571;-61
2023/05/12 04:36:33;;;;;;;1.60;0.45;;;;;;;;;;21007137;28;20056;-61
2023/05/12 04:46:34;;;;;;;1.58;0.10;;;;;;;;;;21006446;28;20047;-61
2023/05/12 04:56:36;;;;;;;1.35;0.30;;;;;;;;;;21005480;28;20056;-61
2023/05/12 05:06:38;;;;;;;0.95;0.20;;;;;;;;;;21005969;28;20519;-61
2023/05/12 05:16:39;;;;;;;3.90;0.55;;;;;;;;;;21005334;28;20105;-61
2023/05/12 05:26:40;;;;;;;1.45;0.28;;;;;;;;;;21003265;28;20417;-61
2023/05/12 05:36:41;;;;;;;2.95;0.30;;;;;;;;;;21003566;28;20429;-60
2023/05/12 05:46:43;;;;;;;0.95;0.38;;;;;;;;;;21001749;28;20052;-62
2023/05/12 05:56:44;;;;;;;1.40;0.50;;;;;;;;;;21001048;28;20543;-61
2023/05/12 06:06:45;;;;;;;1.58;0.28;;;;;;;;;;21000859;28;20190;-61
2023/05/12 06:16:46;;;;;;;2.13;0.50;;;;;;;;;;20999768;28;20168;-61
2023/05/12 06:26:47;;;;;;;1.88;0.35;;;;;;;;;;20996655;28;20060;-62
2023/05/12 06:36:48;;;;;;;1.73;0.30;;;;;;;;;;20997429;28;20503;-62
2023/05/12 06:46:49;;;;;;;1.02;0.22;;;;;;;;;;20995579;28;20098;-61
2023/05/12 06:56:51;;;;;;;1.27;0.30;;;;;;;;;;20995188;28;20504;-62
2023/05/12 07:06:52;;;;;;;3.00;0.50;;;;;;;;;;20995188;28;20048;-62
2023/05/12 07:16:53;;;;;;;2.13;0.20;;;;;;;;;;20996486;28;20053;-61
2023/05/12 07:26:54;;;;;;;0.88;0.30;;;;;;;;;;20994502;28;20061;-61
2023/05/12 07:36:55;;;;;;;2.30;0.40;;;;;;;;;;21010182;28;20044;-62
2023/05/12 07:46:56;;;;;;;0.90;0.20;;;;;;;;;;21011383;28;20170;-61
2023/05/12 07:56:57;;;;;;;0.93;0.20;;;;;;;;;;21011360;28;20052;-60
2023/05/12 08:06:59;;;;;;;1.48;0.20;;;;;;;;;;21009383;28;20040;-62
2023/05/12 08:17:00;;;;;;;2.63;0.30;;;;;;;;;;21010197;28;20052;-61
2023/05/12 08:27:01;;;;;;;1.15;0.30;;;;;;;;;;21004603;28;20056;-62
2023/05/12 08:37:02;;;;;;;3.88;0.40;;;;;;;;;;21002402;28;20045;-61
2023/05/12 08:47:04;;;;;;;2.75;0.30;;;;;;;;;;21003137;28;20037;-61
2023/05/12 08:57:05;;;;;;;2.92;0.30;;;;;;;;;;21002394;28;20068;-62
2023/05/12 09:07:06;;;;;;;2.25;0.20;;;;;;;;;;21001155;28;20382;-61
2023/05/12 09:17:08;;;;;;;1.05;0.30;;;;;;;;;;20999787;28;20123;-62
2023/05/12 09:27:09;;;;;;;0.35;0.10;;;;;;;;;;20963375;28;1132843;-65
2023/05/12 09:37:11;;;;;;;0.40;0.10;;;;;;;;;;21003396;28;20056;-63
2023/05/12 09:57:34;;;;;;;1.38;0.22;;;;;;;;;;21001069;28;20051;-61
2023/05/12 10:07:35;;;;;;;2.53;0.20;;;;;;;;;;21000592;28;20434;-61
2023/05/12 10:17:37;;;;;;;0.10;0.10;;;;;;;;;;20998890;28;20048;-62
2023/05/12 10:27:38;;;;;;;0.47;0.13;;;;;;;;;;20999359;28;20060;-61
2023/05/12 10:37:41;;;;;;;1.10;0.10;;;;;;;;;;20998384;28;20058;-61
2023/05/12 10:47:43;;;;;;;0.30;0.05;;;;;;;;;;20998449;28;20421;-66
2023/05/12 10:57:53;;;;;;;1.95;0.30;;;;;;;;;;20998372;28;20047;-69
2023/05/12 11:07:54;;;;;;;0.98;0.15;;;;;;;;;;20996646;28;20048;-67
2023/05/12 11:17:55;;;;;;;0.30;0.10;;;;;;;;;;20996792;28;20089;-67
2023/05/12 11:27:56;;;;;;;0.05;0.00;;;;;;;;;;20995297;28;20064;-71
2023/05/12 11:37:57;;;;;;;1.42;0.20;;;;;;;;;;20996108;28;20045;-70
2023/05/12 11:48:06;;;;;;;1.83;0.22;;;;;;;;;;20995173;28;20485;-69
2023/05/12 11:58:07;;;;;;;1.05;0.20;;;;;;;;;;20993445;28;20091;-69
2023/05/12 12:08:12;;;;;;;0.47;0.10;;;;;;;;;;20992337;28;20131;-68
2023/05/12 12:18:14;;;;;;;1.65;0.10;;;;;;;;;;21000513;28;20051;-63
2023/05/12 12:28:15;;;;;;;1.88;0.30;;;;;;;;;;21008921;28;20063;-63
2023/05/12 12:38:16;;;;;;;0.68;0.17;;;;;;;;;;21007887;28;20121;-64
2023/05/12 12:48:18;;;;;;;2.05;0.35;;;;;;;;;;21006722;28;20084;-62
2023/05/12 12:58:19;;;;;;;0.10;0.10;;;;;;;;;;21005861;28;20049;-63
2023/05/12 13:08:20;;;;;;;5.47;0.40;;;;;;;;;;21004949;28;20488;-62
2023/05/12 13:18:21;;;;;;;1.25;0.20;;;;;;;;;;21004104;28;20048;-62
2023/05/12 13:28:22;;;;;;;2.25;0.20;;;;;;;;;;21002386;28;20533;-63
2023/05/12 13:38:23;;;;;;;0.82;0.28;;;;;;;;;;21003622;28;20076;-63
2023/05/12 13:48:24;;;;;;;0.43;0.13;;;;;;;;;;21002474;28;20408;-62
2023/05/12 13:58:25;;;;;;;0.30;0.10;;;;;;;;;;21000459;28;20094;-63
2023/05/12 14:08:26;;;;;;;0.77;0.25;;;;;;;;;;21001158;28;20040;-63
2023/05/12 14:18:28;;;;;;;3.53;0.38;;;;;;;;;;20999423;28;20052;-62
2023/05/12 14:28:29;;;;;;;5.47;0.40;;;;;;;;;;20998717;28;20052;-62
2023/05/12 14:38:30;;;;;;;1.45;0.40;;;;;;;;;;20998720;28;20047;-63
2023/05/12 14:48:31;;;;;;;2.75;0.25;;;;;;;;;;20998447;28;20048;-63
2023/05/12 14:58:33;;;;;;;1.85;0.40;;;;;;;;;;20998092;28;20044;-63
2023/05/12 15:08:34;;;;;;;3.05;0.22;;;;;;;;;;20996737;28;20438;-62
2023/05/12 15:18:35;;;;;;;0.32;0.20;;;;;;;;;;20997066;28;20127;-63
2023/05/12 15:28:36;;;;;;;4.45;0.40;;;;;;;;;;20995117;28;20059;-64
2023/05/12 15:38:37;;;;;;;0.28;0.10;;;;;;;;;;20994036;28;20040;-72
2023/05/12 15:48:38;;;;;;;1.13;0.20;;;;;;;;;;20981392;28;20497;-64
2023/05/12 15:58:39;;;;;;;1.50;0.10;;;;;;;;;;20996880;28;20484;-65
2023/05/12 16:08:41;;;;;;;1.98;0.28;;;;;;;;;;20996765;28;20048;-63
2023/05/12 16:18:42;;;;;;;0.43;0.20;;;;;;;;;;20991595;28;20481;-65
2023/05/12 16:28:43;;;;;;;0.30;0.17;;;;;;;;;;20997781;28;20060;-68
2023/05/12 16:38:44;;;;;;;2.53;0.20;;;;;;;;;;21002786;28;20036;-63
2023/05/12 16:48:45;;;;;;;1.73;0.20;;;;;;;;;;20991102;28;20048;-64
2023/05/12 16:58:46;;;;;;;0.70;0.30;;;;;;;;;;20971638;28;20040;-63
2023/05/12 17:08:47;;;;;;;2.08;0.20;;;;;;;;;;20998833;28;20455;-62
2023/05/12 17:18:49;;;;;;;1.63;0.35;;;;;;;;;;21004764;28;20374;-62
2023/05/12 17:28:50;;;;;;;3.28;0.30;;;;;;;;;;20992843;28;20060;-61
2023/05/12 17:38:51;;;;;;;1.23;0.28;;;;;;;;;;20992803;28;20037;-63
2023/05/12 17:48:52;;;;;;;0.50;0.10;;;;;;;;;;20984791;28;20045;-63
2023/05/12 17:58:53;;;;;;;0.75;0.20;;;;;;;;;;20924296;28;20433;-63
2023/05/12 18:08:55;;;;;;;0.68;0.20;;;;;;;;;;20908728;28;20045;-64
2023/05/12 18:18:57;;;;;;;1.17;0.28;;;;;;;;;;20913024;28;20103;-65
2023/05/12 18:28:58;;;;;;;3.33;0.20;;;;;;;;;;20915622;28;20515;-63
2023/05/12 18:38:59;;;;;;;5.10;0.68;;;;;;;;;;20915332;28;20048;-63
2023/05/12 18:49:00;;;;;;;7.75;0.30;;;;;;;;;;20914905;28;20128;-68
2023/05/12 18:59:01;;;;;;;4.05;0.50;;;;;;;;;;20914674;28;20383;-66
2023/05/12 19:09:03;;;;;;;5.43;0.60;;;;;;;;;;20914636;28;20101;-70
2023/05/12 19:19:05;;;;;;;2.42;0.47;;;;;;;;;;20913673;28;20379;-67
2023/05/12 19:29:06;;;;;;;2.47;0.55;;;;;;;;;;20921721;28;20097;-67
2023/05/12 19:39:07;;;;;;;1.75;0.50;;;;;;;;;;20929103;28;20118;-62
2023/05/12 19:49:08;;;;;;;3.97;0.40;;;;;;;;;;20928447;28;20049;-63
2023/05/12 19:59:09;;;;;;;2.60;0.50;;;;;;;;;;20927574;28;20106;-67
2023/05/12 20:09:10;;;;;;;3.40;1.08;;;;;;;;;;20927678;28;20037;-66
2023/05/12 20:19:11;;;;;;;1.45;0.40;;;;;;;;;;20927460;28;20045;-67
2023/05/12 20:29:19;;;;;;;1.23;0.50;;;;;;;;;;20925296;28;20081;-67
2023/05/12 20:39:20;;;;;;;1.88;0.52;;;;;;;;;;20924969;28;20114;-67
2023/05/12 20:49:21;;;;;;;2.22;0.63;;;;;;;;;;20924873;28;20049;-68
2023/05/12 20:59:25;;;;;;;1.00;0.28;;;;;;;;;;20924008;28;20470;-66
2023/05/12 21:09:27;;;;;;;1.55;0.80;;;;;;;;;;20923156;28;20055;-67
2023/05/12 21:19:28;;;;;;;2.85;0.75;;;;;;;;;;20920766;28;20060;-66
2023/05/12 21:29:30;;;;;;;1.92;0.55;;;;;;;;;;20921294;28;20049;-69
2023/05/12 21:39:31;;;;;;;2.95;0.73;;;;;;;;;;20920999;28;20048;-68
2023/05/12 21:49:32;;;;;;;1.67;0.38;;;;;;;;;;20919205;28;20497;-67
2023/05/12 21:59:34;;;;;;;3.22;0.55;;;;;;;;;;20917588;28;20040;-67
2023/05/12 22:09:35;;;;;;;2.30;0.50;;;;;;;;;;20918293;28;20482;-68
2023/05/12 22:19:37;;;;;;;1.50;0.30;;;;;;;;;;20916918;28;20045;-68
2023/05/12 22:29:38;;;;;;;0.63;0.20;;;;;;;;;;20915361;28;20549;-68
2023/05/12 22:39:39;;;;;;;0.75;0.32;;;;;;;;;;20914046;28;20529;-67
2023/05/12 22:49:40;;;;;;;1.30;0.38;;;;;;;;;;20914467;28;20045;-67
2023/05/12 22:59:41;;;;;;;0.77;0.30;;;;;;;;;;20914653;28;20056;-67
2023/05/12 23:09:42;;;;;;;1.75;0.50;;;;;;;;;;20913149;28;20048;-66
2023/05/12 23:19:43;;;;;;;0.50;0.13;;;;;;;;;;20913952;28;20402;-67
2023/05/12 23:29:45;;;;;;;0.80;0.20;;;;;;;;;;20913872;28;20505;-67
2023/05/12 23:39:46;;;;;;;3.22;0.50;;;;;;;;;;20913610;28;20051;-67
2023/05/12 23:49:47;;;;;;;0.68;0.15;;;;;;;;;;20913133;28;20045;-67
2023/05/12 23:59:48;;;;;;;1.77;0.43;;;;;;;;;;20912584;28;20140;-67
